createdAt,value
2018-03-02T00:02:21.376Z,100751.69
2018-03-02T00:04:49.029Z,100748.63
2018-03-02T00:07:16.623Z,100751.48
2018-03-02T00:09:45.178Z,100751.99
2018-03-02T00:12:16.066Z,100746.52
2018-03-02T00:14:43.647Z,100744.08
2018-03-02T00:17:11.349Z,100748.63
2018-03-02T00:19:38.925Z,100741.27
2018-03-02T00:22:06.494Z,100742.06
2018-03-02T00:24:34.123Z,100748.73
2018-03-02T00:27:01.716Z,100740.95
2018-03-02T00:29:29.297Z,100749.77
2018-03-02T00:32:01.812Z,100735.44
2018-03-02T00:34:29.625Z,100734.56
2018-03-02T00:36:57.275Z,100725.65
2018-03-02T00:39:24.894Z,100722.59
2018-03-02T00:41:52.478Z,100722.59
2018-03-02T00:44:20.070Z,100710.00
2018-03-02T00:46:47.671Z,100726.93
2018-03-02T00:49:15.385Z,100719.13
2018-03-02T00:51:42.982Z,100719.33
2018-03-02T00:54:10.805Z,100719.64
2018-03-02T00:56:38.418Z,100714.58
2018-03-02T00:59:06.021Z,100717.00
2018-03-02T01:01:33.636Z,100714.57
2018-03-02T01:04:01.272Z,100708.19
2018-03-02T01:06:28.898Z,100702.18
2018-03-02T01:08:56.509Z,100703.71
2018-03-02T01:11:24.210Z,100697.53
2018-03-02T01:13:51.780Z,100699.86
2018-03-02T01:16:19.444Z,100698.95
2018-03-02T01:18:47.079Z,100703.70
2018-03-02T01:21:14.649Z,100702.17
2018-03-02T01:23:42.716Z,100695.48
2018-03-02T01:26:10.412Z,100689.62
2018-03-02T01:28:38.007Z,100694.79
2018-03-02T01:31:05.703Z,100690.94
2018-03-02T01:33:33.428Z,100694.06
2018-03-02T01:36:01.387Z,100701.37
2018-03-02T01:38:29.071Z,100678.13
2018-03-02T01:40:57.330Z,100683.52
2018-03-02T01:43:25.044Z,100678.03
2018-03-02T01:45:52.762Z,100678.45
2018-03-02T01:48:20.414Z,100663.05
2018-03-02T01:50:48.006Z,100667.58
2018-03-02T01:53:15.569Z,100670.95
2018-03-02T01:55:43.506Z,100655.62
2018-03-02T01:58:11.073Z,100660.30
2018-03-02T02:00:38.645Z,100657.04
2018-03-02T02:03:06.270Z,100640.01
2018-03-02T02:05:34.295Z,100639.90
2018-03-02T02:08:02.324Z,100637.17
2018-03-02T02:10:29.937Z,100643.37
2018-03-02T02:12:57.524Z,100633.73
2018-03-02T02:15:25.103Z,100628.36
2018-03-02T02:17:53.028Z,100619.03
2018-03-02T02:20:20.728Z,100632.61
2018-03-02T02:22:48.341Z,100617.81
2018-03-02T02:25:15.928Z,100622.98
2018-03-02T02:27:43.563Z,100620.86
2018-03-02T02:30:11.365Z,100610.42
2018-03-02T02:32:38.967Z,100605.95
2018-03-02T02:35:06.918Z,100597.42
2018-03-02T02:37:34.561Z,100600.78
2018-03-02T02:40:02.387Z,100592.98
2018-03-02T02:42:30.063Z,100583.55
2018-03-02T02:44:57.663Z,100584.77
2018-03-02T02:47:25.239Z,100580.40
2018-03-02T02:49:52.941Z,100573.32
2018-03-02T02:52:20.498Z,100580.30
2018-03-02T02:54:48.046Z,100588.02
2018-03-02T02:57:15.749Z,100582.54
2018-03-02T02:59:43.384Z,100589.52
2018-03-02T03:02:10.983Z,100583.45
2018-03-02T03:04:38.620Z,100586.50
2018-03-02T03:07:06.215Z,100589.41
2018-03-02T03:09:33.812Z,100585.87
2018-03-02T03:12:01.508Z,100586.88
2018-03-02T03:14:29.106Z,100592.66
2018-03-02T03:16:56.676Z,100586.87
2018-03-02T03:19:24.301Z,100589.59
2018-03-02T03:21:51.906Z,100586.86
2018-03-02T03:24:19.488Z,100579.99
2018-03-02T03:26:47.111Z,100572.16
2018-03-02T03:29:14.812Z,100581.19
2018-03-02T03:31:42.383Z,100577.53
2018-03-02T03:34:10.008Z,100568.83
2018-03-02T03:36:37.585Z,100568.52
2018-03-02T03:39:05.255Z,100571.67
2018-03-02T03:41:32.883Z,100570.36
2018-03-02T03:44:00.446Z,100577.25
2018-03-02T03:46:28.061Z,100573.99
2018-03-02T03:48:55.634Z,100561.23
2018-03-02T03:51:23.296Z,100564.34
2018-03-02T03:53:50.918Z,100558.69
2018-03-02T03:56:18.738Z,100548.27
2018-03-02T03:58:46.325Z,100555.86
2018-03-02T04:01:14.175Z,100556.76
2018-03-02T04:03:41.766Z,100538.84
2018-03-02T04:06:09.395Z,100538.74
2018-03-02T04:08:36.984Z,100538.33
2018-03-02T04:11:04.573Z,100535.79
2018-03-02T04:13:32.209Z,100543.78
2018-03-02T04:15:59.796Z,100534.67
2018-03-02T04:18:27.663Z,100534.55
2018-03-02T04:20:55.276Z,100537.08
2018-03-02T04:23:22.953Z,100527.23
2018-03-02T04:25:50.563Z,100522.09
2018-03-02T04:28:18.184Z,100519.07
2018-03-02T04:30:45.824Z,100514.81
2018-03-02T04:33:13.418Z,100517.34
2018-03-02T04:35:41.000Z,100522.70
2018-03-02T04:38:08.658Z,100515.59
2018-03-02T04:40:36.265Z,100513.17
2018-03-02T04:43:04.088Z,100511.95
2018-03-02T04:45:31.693Z,100516.47
2018-03-02T04:47:59.552Z,100503.74
2018-03-02T04:50:27.176Z,100502.73
2018-03-02T04:52:54.860Z,100500.80
2018-03-02T04:55:22.617Z,100508.56
2018-03-02T04:57:50.190Z,100505.66
2018-03-02T05:00:17.751Z,100501.09
2018-03-02T05:02:45.376Z,100506.44
2018-03-02T05:05:13.118Z,100509.47
2018-03-02T05:07:40.719Z,100504.49
2018-03-02T05:10:08.338Z,100496.33
2018-03-02T05:12:35.920Z,100503.89
2018-03-02T05:15:03.509Z,100500.36
2018-03-02T05:17:31.104Z,100501.23
2018-03-02T05:19:58.741Z,100492.02
2018-03-02T05:22:26.311Z,100492.35
2018-03-02T05:24:54.249Z,100487.48
2018-03-02T05:27:23.019Z,100495.17
2018-03-02T05:29:50.593Z,100486.34
2018-03-02T05:32:18.188Z,100477.56
2018-03-02T05:34:45.982Z,100490.39
2018-03-02T05:37:13.619Z,100482.88
2018-03-02T05:39:41.187Z,100481.27
2018-03-02T05:42:08.820Z,100475.20
2018-03-02T05:44:36.454Z,100473.66
2018-03-02T05:47:04.052Z,100470.20
2018-03-02T05:49:31.620Z,100478.28
2018-03-02T05:51:59.507Z,100467.44
2018-03-02T05:54:27.118Z,100463.73
2018-03-02T05:56:54.681Z,100470.20
2018-03-02T05:59:22.303Z,100468.98
2018-03-02T06:01:50.121Z,100464.13
2018-03-02T06:04:17.697Z,100465.73
2018-03-02T06:06:45.329Z,100459.77
2018-03-02T06:09:12.967Z,100456.23
2018-03-02T06:11:40.563Z,100462.39
2018-03-02T06:14:08.186Z,100461.49
2018-03-02T06:16:35.774Z,100456.34
2018-03-02T06:19:04.250Z,100449.57
2018-03-02T06:21:31.965Z,100447.05
2018-03-02T06:23:59.625Z,100450.25
2018-03-02T06:26:27.238Z,100457.02
2018-03-02T06:28:54.831Z,100453.61
2018-03-02T06:31:22.659Z,100446.02
2018-03-02T06:33:50.251Z,100448.45
2018-03-02T06:36:17.843Z,100451.18
2018-03-02T06:38:45.436Z,100458.58
2018-03-02T06:41:13.082Z,100451.56
2018-03-02T06:43:40.680Z,100454.52
2018-03-02T06:46:08.245Z,100452.90
2018-03-02T06:48:35.867Z,100456.05
2018-03-02T06:51:03.443Z,100443.90
2018-03-02T06:53:31.004Z,100447.37
2018-03-02T06:55:58.878Z,100438.38
2018-03-02T06:58:26.506Z,100447.48
2018-03-02T07:00:54.159Z,100442.50
2018-03-02T07:03:21.777Z,100450.33
2018-03-02T07:05:49.344Z,100448.09
2018-03-02T07:08:17.056Z,100455.99
2018-03-02T07:10:44.710Z,100449.94
2018-03-02T07:13:12.272Z,100450.83
2018-03-02T07:15:39.860Z,100453.16
2018-03-02T07:18:07.516Z,100445.91
2018-03-02T07:20:35.078Z,100436.81
2018-03-02T07:23:02.970Z,100429.45
2018-03-02T07:25:30.597Z,100422.27
2018-03-02T07:27:58.167Z,100428.16
2018-03-02T07:30:25.753Z,100419.64
2018-03-02T07:32:53.363Z,100418.33
2018-03-02T07:35:20.943Z,100415.11
2018-03-02T07:37:48.540Z,100423.00
2018-03-02T07:40:16.190Z,100415.11
2018-03-02T07:42:43.767Z,100410.23
2018-03-02T07:45:11.317Z,100403.37
2018-03-02T07:47:38.901Z,100406.91
2018-03-02T07:50:06.485Z,100396.59
2018-03-02T07:52:34.154Z,100396.69
2018-03-02T07:55:01.847Z,100393.64
2018-03-02T07:57:29.706Z,100396.48
2018-03-02T07:59:57.517Z,100391.21
2018-03-02T08:02:25.126Z,100396.95
2018-03-02T08:04:52.717Z,100401.84
2018-03-02T08:07:20.309Z,100393.41
2018-03-02T08:09:48.009Z,100395.66
2018-03-02T08:12:15.619Z,100402.13
2018-03-02T08:14:43.218Z,100395.92
2018-03-02T08:17:10.910Z,100406.65
2018-03-02T08:19:38.470Z,100391.05
2018-03-02T08:22:06.042Z,100390.53
2018-03-02T08:24:33.671Z,100386.98
2018-03-02T08:27:01.503Z,100389.91
2018-03-02T08:29:29.145Z,100389.69
2018-03-02T08:31:56.847Z,100382.66
2018-03-02T08:34:24.662Z,100383.47
2018-03-02T08:36:52.259Z,100376.33
2018-03-02T08:39:19.860Z,100379.33
2018-03-02T08:41:47.424Z,100367.17
2018-03-02T08:44:15.050Z,100381.24
2018-03-02T08:46:42.661Z,100386.16
2018-03-02T08:49:10.271Z,100367.65
2018-03-02T08:51:37.863Z,100365.75
2018-03-02T08:54:05.557Z,100382.42
2018-03-02T08:56:33.164Z,100378.05
2018-03-02T08:59:00.732Z,100376.50
2018-03-02T09:01:28.363Z,100379.83
2018-03-02T09:03:55.924Z,100369.53
2018-03-02T09:06:23.493Z,100366.79
2018-03-02T09:08:51.133Z,100368.47
2018-03-02T09:11:18.714Z,100371.65
2018-03-02T09:13:46.284Z,100365.11
2018-03-02T09:16:13.956Z,100377.42
2018-03-02T09:18:41.566Z,100362.87
2018-03-02T09:21:09.202Z,100373.44
2018-03-02T09:23:36.832Z,100377.27
2018-03-02T09:26:04.447Z,100362.44
2018-03-02T09:28:32.046Z,100365.45
2018-03-02T09:31:00.779Z,100363.77
2018-03-02T09:33:28.442Z,100366.95
2018-03-02T09:35:56.035Z,100356.30
2018-03-02T09:38:23.688Z,100348.53
2018-03-02T09:40:51.417Z,100342.13
2018-03-02T09:43:21.157Z,100345.75
2018-03-02T09:45:49.015Z,100349.04
2018-03-02T09:48:16.626Z,100343.11
2018-03-02T09:50:44.661Z,100338.41
2018-03-02T09:53:12.246Z,100332.10
2018-03-02T09:55:39.896Z,100325.94
2018-03-02T09:58:07.454Z,100328.33
2018-03-02T10:00:35.032Z,100331.03
2018-03-02T10:03:02.962Z,100326.48
2018-03-02T10:05:30.529Z,100326.69
2018-03-02T10:07:58.087Z,100327.05
2018-03-02T10:10:25.720Z,100316.22
2018-03-02T10:12:53.530Z,100328.28
2018-03-02T10:15:21.183Z,100330.56
2018-03-02T10:17:48.777Z,100328.66
2018-03-02T10:20:16.372Z,100317.72
2018-03-02T10:22:44.357Z,100306.70
2018-03-02T10:25:11.993Z,100306.30
2018-03-02T10:27:39.650Z,100296.20
2018-03-02T10:30:07.271Z,100298.08
2018-03-02T10:32:34.852Z,100304.64
2018-03-02T10:35:02.677Z,100293.19
2018-03-02T10:37:30.284Z,100291.22
2018-03-02T10:39:57.882Z,100288.86
2018-03-02T10:42:25.532Z,100290.22
2018-03-02T10:44:53.119Z,100279.36
2018-03-02T10:47:20.988Z,100274.77
2018-03-02T10:49:48.684Z,100287.83
2018-03-02T10:52:16.298Z,100283.22
2018-03-02T10:54:43.922Z,100282.75
2018-03-02T10:57:11.566Z,100288.84
2018-03-02T10:59:39.440Z,100282.10
2018-03-02T11:02:07.198Z,100276.06
2018-03-02T11:04:36.684Z,100278.97
2018-03-02T11:07:04.269Z,100279.69
2018-03-02T11:09:32.171Z,100274.67
2018-03-02T11:11:59.759Z,100258.21
2018-03-02T11:14:27.368Z,100270.39
2018-03-02T11:16:55.029Z,100271.13
2018-03-02T11:19:22.679Z,100256.27
2018-03-02T11:21:50.413Z,100261.70
2018-03-02T11:24:18.057Z,100260.20
2018-03-02T11:26:45.620Z,100254.59
2018-03-02T11:29:13.198Z,100248.13
2018-03-02T11:31:41.099Z,100250.55
2018-03-02T11:34:08.681Z,100261.55
2018-03-02T11:36:36.344Z,100244.82
2018-03-02T11:39:03.999Z,100241.19
2018-03-02T11:41:31.635Z,100237.73
2018-03-02T11:43:59.347Z,100231.18
2018-03-02T11:46:26.945Z,100221.48
2018-03-02T11:48:54.572Z,100221.14
2018-03-02T11:51:22.254Z,100214.30
2018-03-02T11:53:49.920Z,100213.35
2018-03-02T11:56:17.547Z,100224.38
2018-03-02T11:58:45.362Z,100206.25
2018-03-02T12:01:12.971Z,100199.34
2018-03-02T12:03:40.686Z,100194.63
2018-03-02T12:06:08.335Z,100189.86
2018-03-02T12:08:35.925Z,100194.74
2018-03-02T12:11:03.632Z,100192.62
2018-03-02T12:13:31.227Z,100192.22
2018-03-02T12:15:58.820Z,100187.33
2018-03-02T12:18:26.493Z,100185.87
2018-03-02T12:20:54.080Z,100181.03
2018-03-02T12:23:21.910Z,100175.79
2018-03-02T12:25:49.555Z,100169.92
2018-03-02T12:28:17.163Z,100163.55
2018-03-02T12:30:45.155Z,100161.59
2018-03-02T12:33:12.821Z,100153.94
2018-03-02T12:35:40.491Z,100152.73
2018-03-02T12:38:08.069Z,100138.35
2018-03-02T12:40:35.742Z,100142.81
2018-03-02T12:43:03.428Z,100137.94
2018-03-02T12:45:31.332Z,100137.55
2018-03-02T12:47:58.989Z,100134.56
2018-03-02T12:50:26.635Z,100141.89
2018-03-02T12:52:54.225Z,100135.80
2018-03-02T12:55:21.783Z,100132.86
2018-03-02T12:57:49.445Z,100127.30
2018-03-02T13:00:17.307Z,100127.07
2018-03-02T13:02:44.931Z,100127.05
2018-03-02T13:05:12.580Z,100121.11
2018-03-02T13:07:40.200Z,100122.10
2018-03-02T13:10:07.796Z,100117.27
2018-03-02T13:12:35.724Z,100116.82
2018-03-02T13:15:03.587Z,100117.92
2018-03-02T13:17:31.239Z,100117.70
2018-03-02T13:19:58.877Z,100119.66
2018-03-02T13:22:38.303Z,100113.64
2018-03-02T13:25:06.017Z,100111.77
2018-03-02T13:27:45.341Z,100115.45
2018-03-02T13:30:13.371Z,100102.06
2018-03-02T13:32:41.002Z,100101.20
2018-03-02T13:35:11.492Z,100099.11
2018-03-02T13:37:39.122Z,100111.06
2018-03-02T13:40:18.438Z,100103.98
2018-03-02T13:42:46.093Z,100103.61
2018-03-02T13:45:13.691Z,100105.67
2018-03-02T13:50:58.175Z,100104.59
2018-03-02T13:53:25.870Z,100112.20
2018-03-02T13:55:57.178Z,100100.34
2018-03-02T13:58:26.750Z,100105.97
2018-03-02T14:00:54.359Z,100097.25
2018-03-02T14:03:33.810Z,100101.18
2018-03-02T14:06:01.380Z,100102.31
2018-03-02T14:08:29.000Z,100105.91
2018-03-02T14:10:56.782Z,100106.13
2018-03-02T14:13:24.389Z,100109.02
2018-03-02T14:15:52.011Z,100097.52
2018-03-02T14:18:19.683Z,100100.11
2018-03-02T14:20:47.578Z,100097.49
2018-03-02T14:23:15.203Z,100094.44
2018-03-02T14:25:42.945Z,100084.03
2018-03-02T14:28:10.610Z,100075.54
2018-03-02T14:30:38.240Z,100089.28
2018-03-02T14:33:05.885Z,100080.79
2018-03-02T14:35:33.495Z,100083.38
2018-03-02T14:38:01.203Z,100078.73
2018-03-02T14:40:28.822Z,100087.68
2018-03-02T14:42:56.407Z,100080.33
2018-03-02T14:45:24.260Z,100084.22
2018-03-02T14:47:51.830Z,100077.66
2018-03-02T14:50:19.483Z,100071.12
2018-03-02T14:52:47.052Z,100065.49
2018-03-02T14:55:14.662Z,100067.59
2018-03-02T14:57:42.285Z,100070.67
2018-03-02T15:00:09.858Z,100061.27
2018-03-02T15:02:37.429Z,100063.00
2018-03-02T15:05:05.053Z,100064.85
2018-03-02T15:07:32.666Z,100055.41
2018-03-02T15:10:00.241Z,100048.05
2018-03-02T15:12:27.999Z,100057.11
2018-03-02T15:14:55.549Z,100068.52
2018-03-02T15:17:23.127Z,100064.30
2018-03-02T15:19:50.768Z,100052.36
2018-03-02T15:22:18.355Z,100051.13
2018-03-02T15:24:45.989Z,100053.47
2018-03-02T15:27:13.575Z,100041.95
2018-03-02T15:29:41.168Z,100037.69
2018-03-02T15:32:08.816Z,100039.53
2018-03-02T15:34:36.480Z,100037.23
2018-03-02T15:37:04.079Z,100040.75
2018-03-02T15:39:31.688Z,100037.72
2018-03-02T15:41:59.299Z,100035.17
2018-03-02T15:44:26.878Z,100039.47
2018-03-02T15:46:54.826Z,100035.33
2018-03-02T15:49:22.466Z,100033.68
2018-03-02T15:51:50.094Z,100033.90
2018-03-02T15:54:17.665Z,100037.83
2018-03-02T15:56:45.221Z,100040.74
2018-03-02T15:59:12.824Z,100036.07
2018-03-02T16:01:40.384Z,100032.89
2018-03-02T16:04:07.978Z,100027.16
2018-03-02T16:06:35.578Z,100029.55
2018-03-02T16:09:03.456Z,100037.53
2018-03-02T16:11:31.346Z,100033.42
2018-03-02T16:13:58.932Z,100031.14
2018-03-02T16:16:26.538Z,100030.69
2018-03-02T16:18:54.221Z,100031.05
2018-03-02T16:21:21.813Z,100025.42
2018-03-02T16:23:49.459Z,100035.30
2018-03-02T16:26:17.042Z,100030.99
2018-03-02T16:28:44.625Z,100023.53
2018-03-02T16:31:12.256Z,100015.14
2018-03-02T16:33:39.832Z,100026.28
2018-03-02T16:36:07.427Z,100022.50
2018-03-02T16:38:35.053Z,100022.03
2018-03-02T16:41:02.633Z,100028.75
2018-03-02T16:43:30.287Z,100035.62
2018-03-02T16:45:58.116Z,100038.06
2018-03-02T16:48:25.756Z,100038.38
2018-03-02T16:50:53.490Z,100041.45
2018-03-02T16:53:21.095Z,100043.69
2018-03-02T16:55:48.689Z,100046.91
2018-03-02T16:58:16.260Z,100048.66
2018-03-02T17:00:43.875Z,100047.92
2018-03-02T17:03:11.759Z,100051.63
2018-03-02T17:05:39.632Z,100051.65
2018-03-02T17:08:07.290Z,100047.79
2018-03-02T17:10:34.887Z,100053.52
2018-03-02T17:13:02.471Z,100048.62
2018-03-02T17:15:30.131Z,100044.27
2018-03-02T17:17:57.790Z,100049.02
2018-03-02T17:20:25.353Z,100040.98
2018-03-02T17:22:52.923Z,100042.64
2018-03-02T17:25:20.540Z,100046.14
2018-03-02T17:27:48.351Z,100059.18
2018-03-02T17:30:15.987Z,100061.26
2018-03-02T17:32:43.614Z,100065.38
2018-03-02T17:35:11.178Z,100063.17
2018-03-02T17:37:38.811Z,100069.81
2018-03-02T17:40:06.449Z,100067.25
2018-03-02T17:42:34.028Z,100065.09
2018-03-02T17:45:01.656Z,100070.27
2018-03-02T17:47:29.225Z,100074.33
2018-03-02T17:49:56.801Z,100072.43
2018-03-02T17:52:24.462Z,100072.88
2018-03-02T17:54:52.147Z,100080.67
2018-03-02T17:57:19.720Z,100079.05
2018-03-02T17:59:47.273Z,100083.53
2018-03-02T18:02:15.097Z,100082.70
2018-03-02T18:04:42.981Z,100083.81
2018-03-02T18:07:10.598Z,100074.90
2018-03-02T18:09:38.235Z,100073.31
2018-03-02T18:12:05.822Z,100083.25
2018-03-02T18:14:33.420Z,100083.17
2018-03-02T18:17:01.402Z,100082.66
2018-03-02T18:19:29.072Z,100084.40
2018-03-02T18:21:56.653Z,100089.00
2018-03-02T18:24:24.286Z,100091.45
2018-03-02T18:26:51.860Z,100083.62
2018-03-02T18:29:20.258Z,100090.20
2018-03-02T18:31:48.198Z,100088.95
2018-03-02T18:34:15.801Z,100096.52
2018-03-02T18:36:43.355Z,100098.13
2018-03-02T18:39:10.945Z,100107.91
2018-03-02T18:41:38.550Z,100105.21
2018-03-02T18:44:06.183Z,100108.88
2018-03-02T18:46:33.766Z,100116.48
2018-03-02T18:49:01.372Z,100115.05
2018-03-02T18:51:28.992Z,100122.48
2018-03-02T18:53:56.598Z,100126.96
2018-03-02T18:56:24.183Z,100129.25
2018-03-02T18:58:51.813Z,100130.04
2018-03-02T19:01:19.384Z,100123.42
2018-03-02T19:03:47.304Z,100137.27
2018-03-02T19:06:14.940Z,100136.52
2018-03-02T19:08:42.588Z,100136.70
2018-03-02T19:11:10.170Z,100146.50
2018-03-02T19:13:37.906Z,100143.56
2018-03-02T19:16:05.515Z,100150.48
2018-03-02T19:18:33.124Z,100152.25
2018-03-02T19:21:01.015Z,100155.55
2018-03-02T19:23:28.610Z,100155.14
2018-03-02T19:25:56.211Z,100160.69
2018-03-02T19:28:23.911Z,100158.20
2018-03-02T19:30:51.607Z,100167.31
2018-03-02T19:33:19.270Z,100165.87
2018-03-02T19:35:47.005Z,100170.20
2018-03-02T19:38:14.698Z,100172.17
2018-03-02T19:40:42.466Z,100174.30
2018-03-02T19:43:10.250Z,100179.95
2018-03-02T19:45:38.186Z,100177.85
2018-03-02T19:48:06.161Z,100173.09
2018-03-02T19:50:33.882Z,100168.94
2018-03-02T19:53:01.578Z,100169.48
2018-03-02T19:55:29.652Z,100174.36
2018-03-02T19:57:57.387Z,100172.80
2018-03-02T20:00:25.098Z,100175.33
2018-03-02T20:02:52.847Z,100169.53
2018-03-02T20:05:20.504Z,100175.56
2018-03-02T20:07:48.092Z,100175.45
2018-03-02T20:10:15.790Z,100178.39
2018-03-02T20:12:43.474Z,100175.13
2018-03-02T20:15:11.109Z,100186.75
2018-03-02T20:17:38.766Z,100177.53
2018-03-02T20:20:06.488Z,100175.39
2018-03-02T20:22:34.146Z,100179.59
2018-03-02T20:25:01.740Z,100168.33
2018-03-02T20:27:29.671Z,100179.03
2018-03-02T20:29:57.280Z,100187.31
2018-03-02T20:32:24.889Z,100186.43
2018-03-02T20:34:52.852Z,100181.02
2018-03-02T20:37:20.531Z,100181.95
2018-03-02T20:39:48.195Z,100176.02
2018-03-02T20:42:15.791Z,100173.91
2018-03-02T20:44:43.396Z,100173.42
2018-03-02T20:47:10.974Z,100172.11
2018-03-02T20:49:38.834Z,100174.44
2018-03-02T20:52:06.426Z,100168.48
2018-03-02T20:54:34.036Z,100172.78
2018-03-02T20:57:01.637Z,100171.79
2018-03-02T20:59:29.265Z,100174.97
2018-03-02T21:01:57.089Z,100178.64
2018-03-02T21:04:24.681Z,100181.75
2018-03-02T21:06:52.506Z,100182.09
2018-03-02T21:09:20.138Z,100172.54
2018-03-02T21:11:47.997Z,100173.20
2018-03-02T21:14:15.613Z,100169.59
2018-03-02T21:16:43.187Z,100170.39
2018-03-02T21:19:10.787Z,100169.91
2018-03-02T21:21:38.668Z,100162.38
2018-03-02T21:24:06.254Z,100163.72
2018-03-02T21:26:33.831Z,100162.52
2018-03-02T21:29:01.849Z,100160.09
2018-03-02T21:31:29.477Z,100160.17
2018-03-02T21:33:57.068Z,100155.11
2018-03-02T21:36:24.727Z,100158.27
2018-03-02T21:38:52.598Z,100167.70
2018-03-02T21:41:20.182Z,100160.98
2018-03-02T21:43:47.827Z,100168.73
2018-03-02T21:46:15.402Z,100153.14
2018-03-02T21:48:43.040Z,100153.29
2018-03-02T21:51:10.693Z,100152.05
2018-03-02T21:53:38.263Z,100151.18
2018-03-02T21:56:05.962Z,100152.28
2018-03-02T21:58:33.642Z,100155.06
2018-03-02T22:01:01.552Z,100151.85
2018-03-02T22:03:29.207Z,100152.58
2018-03-02T22:05:57.023Z,100148.16
2018-03-02T22:08:24.714Z,100156.91
2018-03-02T22:10:52.611Z,100153.16
2018-03-02T22:13:20.272Z,100153.29
2018-03-02T22:15:47.894Z,100154.56
2018-03-02T22:18:15.532Z,100153.77
2018-03-02T22:20:43.125Z,100152.04
2018-03-02T22:23:10.743Z,100148.42
2018-03-02T22:25:38.400Z,100151.33
2018-03-02T22:28:06.049Z,100149.08
2018-03-02T22:30:33.608Z,100157.26
2018-03-02T22:33:01.165Z,100150.21
2018-03-02T22:35:28.777Z,100151.20
2018-03-02T22:37:56.376Z,100146.80
2018-03-02T22:40:24.022Z,100146.27
2018-03-02T22:42:51.681Z,100144.72
2018-03-02T22:45:19.242Z,100157.56
2018-03-02T22:47:46.811Z,100156.47
2018-03-02T22:50:14.716Z,100150.41
2018-03-02T22:52:42.302Z,100148.73
2018-03-02T22:55:09.900Z,100147.41
2018-03-02T22:57:37.495Z,100146.66
2018-03-02T23:00:05.175Z,100155.27
2018-03-02T23:02:32.796Z,100151.64
2018-03-02T23:05:00.463Z,100149.94
2018-03-02T23:07:28.045Z,100153.23
2018-03-02T23:09:55.692Z,100148.67
2018-03-02T23:12:23.322Z,100149.39
2018-03-02T23:14:57.625Z,100155.72
2018-03-02T23:17:25.242Z,100148.78
2018-03-02T23:19:52.843Z,100151.66
2018-03-02T23:22:21.231Z,100150.53
2018-03-02T23:24:49.369Z,100143.24
2018-03-02T23:27:17.584Z,100146.46
2018-03-02T23:29:45.695Z,100153.85
2018-03-02T23:32:13.680Z,100161.81
2018-03-02T23:34:41.786Z,100155.09
2018-03-02T23:37:09.887Z,100153.22
2018-03-02T23:39:37.744Z,100152.80
2018-03-02T23:42:05.345Z,100152.16
2018-03-02T23:44:32.995Z,100149.52
2018-03-02T23:47:00.563Z,100146.16
2018-03-02T23:49:28.134Z,100144.50
2018-03-02T23:51:55.732Z,100149.86
2018-03-02T23:54:23.558Z,100149.11
2018-03-02T23:56:51.134Z,100143.03
2018-03-02T23:59:18.725Z,100152.76
